Time;durP1;ratioP1;P1;durP2;ratioP2;P2;SDS_P1;SDS_P2;PMS_P1;PMS_P2;Temp;Humidity;BMP_temperature;BMP_pressure;BME280_temperature;BME280_humidity;BME280_pressure;Samples;Min_cycle;Max_cycle;Signal;HPM_P1;HPM_P2
2022/07/10 12:35:57;;;;;;;5.15;2.10;;;;;;;25.44;34.92;94614.59;4822830;29;20248;-63
2022/07/10 12:38:24;;;;;;;2.35;1.92;;;;;;;25.55;34.21;94615.50;4823938;29;20237;-63
2022/07/10 12:40:51;;;;;;;4.18;2.28;;;;;;;25.52;33.93;94622.19;4809882;29;20296;-63
2022/07/10 12:43:27;;;;;;;3.42;2.05;;;;;;;25.48;34.43;94615.72;4829082;29;20630;-63
2022/07/10 12:46:19;;;;;;;2.50;2.25;;;;;;;25.35;34.27;94622.31;4813425;29;20241;-63
2022/07/10 12:49:07;;;;;;;3.08;1.70;;;;;;;25.33;34.17;94616.34;4808820;29;20233;-63
2022/07/10 12:51:45;;;;;;;3.92;3.13;;;;;;;25.22;34.15;94617.31;4815226;29;20244;-63
2022/07/10 12:54:33;;;;;;;6.45;5.35;;;;;;;25.12;33.67;94614.50;4809888;29;20239;-63
2022/07/10 12:57:00;;;;;;;2.30;2.10;;;;;;;25.23;33.75;94619.78;4810123;29;20233;-64
2022/07/10 12:59:26;;;;;;;6.75;3.10;;;;;;;25.15;33.25;94613.97;4823355;29;20335;-63
2022/07/10 13:01:52;;;;;;;5.72;4.05;;;;;;;25.05;32.58;94618.19;4816029;29;20217;-63
2022/07/10 13:04:26;;;;;;;4.70;4.00;;;;;;;25.17;32.24;94619.97;4821515;29;20220;-63
2022/07/10 13:06:53;;;;;;;5.43;2.13;;;;;;;25.30;31.83;94615.00;4814973;29;20768;-63
2022/07/10 13:09:24;;;;;;;1.83;1.70;;;;;;;25.38;31.58;94615.59;4814164;29;20229;-63
2022/07/10 13:11:53;;;;;;;3.42;1.83;;;;;;;25.50;29.88;94613.56;4811120;29;20343;-63
2022/07/10 13:14:20;;;;;;;3.28;2.05;;;;;;;25.71;29.87;94611.88;4824128;29;20231;-63
2022/07/10 13:16:45;;;;;;;3.80;1.80;;;;;;;26.07;29.54;94618.41;4814148;29;20240;-63
2022/07/10 13:19:11;;;;;;;2.55;1.60;;;;;;;26.73;28.06;94609.09;4817969;29;20855;-63
2022/07/10 13:21:37;;;;;;;4.03;1.50;;;;;;;27.41;27.12;94609.09;4816451;29;20660;-63
2022/07/10 13:24:05;;;;;;;2.65;1.45;;;;;;;27.93;25.93;94611.63;4814818;29;20815;-63
2022/07/10 13:26:32;;;;;;;1.83;1.30;;;;;;;28.38;24.78;94604.53;4814348;29;20225;-63
2022/07/10 13:28:59;;;;;;;2.55;1.35;;;;;;;28.37;25.59;94604.81;4811960;29;20224;-64
2022/07/10 13:31:25;;;;;;;1.92;1.30;;;;;;;28.14;26.62;94608.88;4807893;29;20205;-63
2022/07/10 13:33:50;;;;;;;2.65;1.70;;;;;;;27.75;25.60;94612.13;4808840;29;20243;-64
2022/07/10 13:36:16;;;;;;;1.75;1.60;;;;;;;27.51;26.06;94611.03;4826091;29;20233;-63
2022/07/10 13:38:42;;;;;;;2.15;1.30;;;;;;;27.71;26.18;94628.03;4827004;29;20236;-64
2022/07/10 13:41:07;;;;;;;1.63;1.52;;;;;;;27.68;25.17;94615.06;4814091;29;20210;-64
2022/07/10 13:43:33;;;;;;;3.38;1.40;;;;;;;28.38;24.49;94615.34;4828055;29;20237;-64
2022/07/10 13:46:00;;;;;;;1.88;1.50;;;;;;;28.98;23.37;94618.19;4823827;29;20323;-64
2022/07/10 13:48:26;;;;;;;1.58;1.48;;;;;;;29.15;22.96;94608.94;4809153;29;20245;-63
2022/07/10 13:50:52;;;;;;;1.50;1.13;;;;;;;28.87;23.50;94622.03;4807792;29;20277;-63
2022/07/10 13:53:18;;;;;;;3.55;1.38;;;;;;;28.21;23.98;94609.44;4824830;29;20256;-63
2022/07/10 13:55:45;;;;;;;2.92;1.27;;;;;;;28.95;23.77;94612.50;4824058;29;20213;-63
2022/07/10 13:58:11;;;;;;;2.65;1.30;;;;;;;28.85;24.76;94616.06;4824257;29;20225;-63
2022/07/10 14:00:37;;;;;;;1.95;1.40;;;;;;;28.98;24.86;94614.69;4813331;29;20244;-64
2022/07/10 14:03:03;;;;;;;1.70;1.40;;;;;;;28.81;24.81;94609.59;4806825;29;20234;-64
2022/07/10 14:05:29;;;;;;;1.42;1.23;;;;;;;28.54;25.60;94613.44;4812900;29;20413;-63
2022/07/10 14:07:55;;;;;;;1.95;1.35;;;;;;;28.66;24.77;94624.00;4824662;29;20242;-63
2022/07/10 14:10:20;;;;;;;2.60;1.40;;;;;;;28.25;24.85;94624.00;4811312;29;20208;-64
2022/07/10 14:12:47;;;;;;;1.25;1.15;;;;;;;28.26;24.75;94630.25;4812721;29;20229;-63
2022/07/10 14:15:12;;;;;;;1.48;1.20;;;;;;;28.40;25.33;94619.69;4816610;29;20241;-61
2022/07/10 14:17:38;;;;;;;1.30;1.20;;;;;;;28.23;24.49;94622.66;4826054;29;20226;-62
2022/07/10 14:20:03;;;;;;;1.50;1.20;;;;;;;28.14;25.17;94617.00;4813570;29;20240;-62
2022/07/10 14:22:29;;;;;;;3.15;1.27;;;;;;;28.52;24.70;94621.06;4824000;29;20222;-62
2022/07/10 14:24:58;;;;;;;1.75;1.40;;;;;;;28.14;25.55;94612.41;4816657;29;20236;-63
2022/07/10 14:27:24;;;;;;;1.75;1.17;;;;;;;28.15;25.11;94610.53;4826418;29;20229;-62
2022/07/10 14:29:50;;;;;;;2.83;1.33;;;;;;;28.31;25.02;94625.66;4824315;29;20232;-61
2022/07/10 14:32:16;;;;;;;2.25;1.40;;;;;;;28.01;25.32;94612.94;4827715;29;20767;-62
2022/07/10 14:34:42;;;;;;;1.67;1.45;;;;;;;27.73;26.13;94624.28;4825692;29;20244;-62
2022/07/10 14:37:07;;;;;;;1.35;1.25;;;;;;;27.78;25.35;94632.38;4823366;29;20225;-62
2022/07/10 14:39:33;;;;;;;2.03;1.27;;;;;;;27.84;25.68;94625.94;4813976;29;20642;-62
2022/07/10 14:41:58;;;;;;;1.48;1.33;;;;;;;29.46;22.95;94623.13;4813984;29;20400;-63
2022/07/10 14:44:24;;;;;;;2.03;1.30;;;;;;;31.41;20.71;94619.47;4813014;29;20248;-62
2022/07/10 14:46:49;;;;;;;1.83;1.10;;;;;;;29.82;21.96;94623.72;4812535;29;20219;-63
2022/07/10 14:49:14;;;;;;;1.65;1.40;;;;;;;28.66;23.54;94624.00;4811927;29;20622;-63
2022/07/10 14:51:41;;;;;;;3.97;1.20;;;;;;;28.40;24.27;94614.28;4818909;29;20232;-63
2022/07/10 14:54:06;;;;;;;2.85;1.20;;;;;;;28.26;24.17;94619.44;4819709;29;20236;-62
2022/07/10 14:56:32;;;;;;;2.40;1.50;;;;;;;28.13;25.28;94620.78;4828099;29;20237;-62
2022/07/10 14:58:57;;;;;;;2.55;1.67;;;;;;;31.32;21.74;94632.03;4817110;29;20301;-62
2022/07/10 15:01:22;;;;;;;3.30;1.40;;;;;;;36.11;16.65;94629.16;4815119;29;20221;-64
2022/07/10 15:03:48;;;;;;;1.58;1.48;;;;;;;38.62;13.94;94626.28;4818242;29;20222;-62
2022/07/10 15:06:13;;;;;;;1.67;1.50;;;;;;;39.94;12.97;94617.97;4829515;29;20228;-64
2022/07/10 15:08:39;;;;;;;2.33;1.30;;;;;;;41.04;12.73;94622.97;4818930;29;20239;-62
2022/07/10 15:11:06;;;;;;;2.40;1.40;;;;;;;39.35;13.04;94622.88;4816606;29;20220;-62
2022/07/10 15:13:32;;;;;;;1.90;1.20;;;;;;;38.16;13.48;94623.47;4813210;29;20250;-64
2022/07/10 15:15:57;;;;;;;3.72;1.40;;;;;;;38.34;13.18;94613.13;4828182;29;20225;-64
2022/07/10 15:18:23;;;;;;;1.52;1.23;;;;;;;39.20;12.42;94626.28;4816045;29;20250;-64
2022/07/10 15:20:48;;;;;;;1.52;1.10;;;;;;;35.60;15.90;94623.34;4817233;29;20233;-62
2022/07/10 15:23:14;;;;;;;3.47;1.20;;;;;;;33.38;18.27;94614.72;4818623;29;20229;-63
2022/07/10 15:25:41;;;;;;;3.30;1.23;;;;;;;31.35;20.61;94621.38;4816844;29;20224;-64
2022/07/10 15:28:09;;;;;;;2.33;1.40;;;;;;;30.43;21.88;94619.72;4818121;29;20261;-63
2022/07/10 15:30:36;;;;;;;2.90;1.65;;;;;;;31.90;20.48;94620.91;4812186;29;20307;-63
2022/07/10 15:33:05;;;;;;;1.70;1.60;;;;;;;32.73;19.12;94622.00;4812841;29;20305;-64
2022/07/10 15:35:33;;;;;;;1.70;1.60;;;;;;;35.02;16.00;94621.69;4828208;29;20241;-63
2022/07/10 15:37:59;;;;;;;2.58;1.38;;;;;;;34.93;16.51;94618.94;4814126;29;20216;-64
2022/07/10 15:40:29;;;;;;;1.38;1.27;;;;;;;33.46;16.99;94622.19;4827081;29;20205;-64
2022/07/10 15:42:56;;;;;;;1.13;1.10;;;;;;;34.35;16.42;94626.19;4812749;29;20234;-64
2022/07/10 15:45:22;;;;;;;1.75;1.20;;;;;;;33.22;17.68;94633.31;4815254;29;20229;-64
2022/07/10 15:47:47;;;;;;;1.40;1.30;;;;;;;30.95;19.44;94630.84;4808383;29;20232;-64
2022/07/10 15:50:13;;;;;;;3.97;1.52;;;;;;;29.78;21.27;94641.66;4813538;29;20711;-63
2022/07/10 15:52:38;;;;;;;1.77;1.67;;;;;;;28.67;22.58;94635.63;4815468;29;20231;-64
2022/07/10 15:55:04;;;;;;;2.33;1.30;;;;;;;28.86;22.68;94636.63;4812793;29;20304;-63
2022/07/10 15:57:29;;;;;;;1.75;1.42;;;;;;;28.23;23.99;94631.59;4819198;29;20229;-63
2022/07/10 15:59:55;;;;;;;2.28;1.55;;;;;;;27.01;25.82;94645.66;4819192;29;20658;-63
2022/07/10 16:02:20;;;;;;;4.50;2.05;;;;;;;26.68;27.31;94642.28;4815340;29;20273;-64
2022/07/10 16:04:46;;;;;;;2.78;1.60;;;;;;;26.39;28.46;94642.59;4815463;29;20240;-63
2022/07/10 16:07:13;;;;;;;1.90;1.73;;;;;;;26.10;30.04;94650.22;4812612;29;20239;-63
2022/07/10 16:09:38;;;;;;;1.90;1.65;;;;;;;26.07;30.35;94653.41;4814968;29;20255;-64
2022/07/10 16:12:05;;;;;;;2.42;2.10;;;;;;;25.80;31.50;94656.13;4814266;29;20229;-63
2022/07/10 16:14:31;;;;;;;2.45;1.80;;;;;;;25.54;31.99;94663.13;4812452;29;20252;-63
2022/07/10 16:16:56;;;;;;;2.17;1.92;;;;;;;25.27;32.55;94681.97;4818186;29;20244;-63
2022/07/10 16:19:22;;;;;;;2.00;1.80;;;;;;;24.72;33.05;94672.91;4815194;29;20205;-63
2022/07/10 16:21:47;;;;;;;3.67;2.00;;;;;;;24.74;33.39;94669.97;4814663;29;20225;-63
2022/07/10 16:24:13;;;;;;;2.95;1.90;;;;;;;24.63;33.09;94672.50;4817411;29;20366;-64
2022/07/10 16:26:38;;;;;;;3.65;1.90;;;;;;;24.30;32.99;94672.53;4825694;29;20226;-64
2022/07/10 16:29:04;;;;;;;5.38;1.90;;;;;;;24.31;32.51;94672.28;4827577;29;20209;-64
2022/07/10 16:31:31;;;;;;;3.25;1.52;;;;;;;24.35;32.00;94686.03;4824536;29;20206;-63
2022/07/10 16:33:56;;;;;;;2.30;2.10;;;;;;;24.20;32.05;94675.88;4818050;29;20230;-63
2022/07/10 16:36:22;;;;;;;1.67;1.58;;;;;;;23.92;31.84;94674.09;4825738;29;20260;-61
2022/07/10 16:38:48;;;;;;;1.77;1.50;;;;;;;23.99;31.71;94669.38;4814405;29;20229;-62
2022/07/10 16:41:14;;;;;;;3.50;1.50;;;;;;;24.01;31.55;94671.84;4811837;29;20333;-61
2022/07/10 16:43:40;;;;;;;1.90;1.70;;;;;;;24.17;31.20;94677.19;4826677;29;20270;-61
2022/07/10 16:46:05;;;;;;;1.40;1.30;;;;;;;24.09;31.65;94666.06;4812905;29;20237;-62
2022/07/10 16:48:31;;;;;;;2.67;1.77;;;;;;;24.00;32.02;94679.03;4814328;29;20236;-62
2022/07/10 16:50:57;;;;;;;1.60;1.23;;;;;;;23.80;32.32;94692.16;4827388;29;20602;-62
2022/07/10 16:53:25;;;;;;;3.08;1.38;;;;;;;23.61;32.54;94670.84;4825694;29;20249;-62
2022/07/10 16:55:51;;;;;;;2.13;1.30;;;;;;;23.17;34.00;94683.16;4816586;29;20220;-62
2022/07/10 16:58:17;;;;;;;1.80;1.52;;;;;;;23.06;34.64;94684.81;4810155;29;20268;-62
2022/07/10 17:00:42;;;;;;;1.73;1.20;;;;;;;22.95;35.08;94680.28;4827302;29;20691;-62
2022/07/10 17:03:08;;;;;;;1.60;1.25;;;;;;;22.71;35.40;94682.19;4815421;29;20677;-62
2022/07/10 17:05:34;;;;;;;1.80;1.50;;;;;;;22.53;36.20;94688.50;4818189;29;20234;-62
2022/07/10 17:08:00;;;;;;;3.28;1.30;;;;;;;22.38;36.42;94695.16;4816514;29;20241;-62
2022/07/10 17:10:25;;;;;;;4.13;1.48;;;;;;;22.29;37.00;94695.72;4809343;29;20209;-62
2022/07/10 17:12:52;;;;;;;2.13;1.33;;;;;;;21.80;38.22;94698.53;4814852;29;20226;-62
2022/07/10 17:15:17;;;;;;;1.50;1.40;;;;;;;21.65;38.91;94692.78;4826966;29;20233;-62
2022/07/10 17:17:44;;;;;;;1.50;1.40;;;;;;;21.65;39.23;94708.84;4811657;29;20231;-62
2022/07/10 17:20:10;;;;;;;2.00;1.13;;;;;;;21.60;39.55;94696.16;4812898;29;20231;-62
2022/07/10 17:22:35;;;;;;;2.55;1.33;;;;;;;21.48;39.77;94692.63;4810396;29;20213;-62
2022/07/10 17:25:01;;;;;;;1.70;1.27;;;;;;;21.40;40.68;94700.97;4813387;29;20225;-63
2022/07/10 17:27:27;;;;;;;1.92;1.45;;;;;;;21.33;40.51;94698.34;4814239;29;20239;-63
2022/07/10 17:29:53;;;;;;;2.15;1.35;;;;;;;21.37;40.44;94702.19;4824829;29;20317;-62
2022/07/10 17:32:19;;;;;;;2.30;1.23;;;;;;;21.35;40.58;94710.44;4824684;29;20229;-63
2022/07/10 17:34:45;;;;;;;2.58;1.55;;;;;;;21.27;40.85;94723.31;4824698;29;20241;-62
2022/07/10 17:37:11;;;;;;;2.38;1.48;;;;;;;21.08;41.22;94715.31;4815184;29;20679;-62
2022/07/10 17:39:37;;;;;;;2.65;1.50;;;;;;;21.13;41.26;94712.78;4826149;29;20230;-61
2022/07/10 17:42:03;;;;;;;3.13;1.63;;;;;;;21.14;41.20;94714.44;4812195;29;20236;-62
2022/07/10 17:44:28;;;;;;;1.92;1.10;;;;;;;21.08;41.48;94728.69;4816731;29;20237;-62
2022/07/10 17:46:54;;;;;;;1.67;1.58;;;;;;;21.00;41.68;94720.16;4814939;29;20209;-62
2022/07/10 17:49:20;;;;;;;2.15;1.50;;;;;;;20.96;41.71;94711.78;4817326;29;20204;-62
2022/07/10 17:51:46;;;;;;;1.63;1.52;;;;;;;20.93;41.95;94714.91;4812164;29;20712;-62
2022/07/10 17:54:12;;;;;;;1.73;1.50;;;;;;;21.06;41.87;94722.75;4825862;29;20244;-62
2022/07/10 17:56:37;;;;;;;1.75;1.65;;;;;;;21.02;41.81;94726.91;4824958;29;20264;-62
2022/07/10 17:59:03;;;;;;;2.30;2.05;;;;;;;20.87;42.49;94721.91;4815315;29;20225;-62
2022/07/10 18:01:29;;;;;;;4.22;2.20;;;;;;;20.82;42.83;94737.84;4827446;29;20227;-62
2022/07/10 18:03:55;;;;;;;1.63;1.52;;;;;;;20.74;42.61;94724.72;4818595;29;20918;-65
2022/07/10 18:06:20;;;;;;;4.00;2.00;;;;;;;20.63;42.98;94728.97;4822142;29;20296;-62
2022/07/10 18:08:50;;;;;;;4.00;2.53;;;;;;;20.40;44.06;94724.25;4822115;29;20329;-62
2022/07/10 18:11:18;;;;;;;2.33;1.65;;;;;;;20.34;43.97;94719.78;4806298;29;20320;-64
2022/07/10 18:13:44;;;;;;;1.55;1.45;;;;;;;20.31;44.32;94724.72;4807049;29;20217;-63
2022/07/10 18:16:10;;;;;;;1.83;1.70;;;;;;;20.20;44.41;94728.94;4822684;29;20237;-63
2022/07/10 18:18:44;;;;;;;2.38;1.95;;;;;;;20.25;44.66;94727.22;4821994;29;20245;-66
2022/07/10 18:21:12;;;;;;;1.60;1.50;;;;;;;20.22;44.97;94733.00;4805615;29;20235;-65
2022/07/10 18:23:38;;;;;;;3.85;1.70;;;;;;;20.13;45.23;94741.50;4816993;29;20236;-64
2022/07/10 18:26:05;;;;;;;1.70;1.60;;;;;;;20.05;45.43;94745.28;4822525;29;20213;-65
2022/07/10 18:28:31;;;;;;;2.10;1.67;;;;;;;20.12;45.62;94751.38;4813590;29;20225;-64
2022/07/10 18:30:57;;;;;;;2.20;2.00;;;;;;;20.02;45.86;94764.38;4811707;29;20243;-64
2022/07/10 18:36:08;;;;;;;2.40;1.63;;;;;;;20.00;46.20;94761.94;4831378;29;20250;-64
2022/07/10 18:38:35;;;;;;;2.70;1.70;;;;;;;19.93;46.54;94765.69;4819323;29;20583;-67
2022/07/10 18:41:04;;;;;;;3.17;1.92;;;;;;;20.03;46.36;94766.03;4815941;29;20209;-66
2022/07/10 18:43:30;;;;;;;2.53;1.60;;;;;;;20.07;46.57;94782.41;4823655;29;20205;-66
2022/07/10 18:45:56;;;;;;;2.00;1.80;;;;;;;20.11;46.28;94779.09;4810505;29;20232;-67
2022/07/10 18:48:22;;;;;;;2.00;1.90;;;;;;;20.20;46.21;94787.66;4823602;29;20239;-66
2022/07/10 18:50:48;;;;;;;3.35;1.77;;;;;;;20.15;46.11;94790.97;4823254;29;20224;-66
2022/07/10 18:53:13;;;;;;;1.75;1.65;;;;;;;20.19;46.09;94807.38;4821455;29;20245;-66
2022/07/10 18:55:39;;;;;;;2.20;1.70;;;;;;;20.09;46.59;94804.38;4819484;29;20212;-66
2022/07/10 18:58:04;;;;;;;2.15;1.67;;;;;;;20.20;46.16;94809.00;4819365;29;20232;-66
2022/07/10 19:00:30;;;;;;;2.08;1.98;;;;;;;20.19;46.67;94812.72;4815272;29;20221;-64
2022/07/10 19:02:55;;;;;;;2.40;1.65;;;;;;;20.21;46.44;94811.47;4808512;29;20229;-64
2022/07/10 19:05:21;;;;;;;1.75;1.65;;;;;;;20.15;46.44;94814.19;4813565;29;20359;-65
2022/07/10 19:07:46;;;;;;;1.75;1.63;;;;;;;20.16;46.80;94815.84;4814354;29;20308;-64
2022/07/10 19:10:12;;;;;;;2.08;1.70;;;;;;;20.18;46.76;94832.44;4818393;29;20224;-65
2022/07/10 19:12:37;;;;;;;1.90;1.75;;;;;;;20.03;47.43;94830.06;4816122;29;20233;-65
2022/07/10 19:15:03;;;;;;;1.65;1.55;;;;;;;19.99;47.21;94832.38;4816401;29;20231;-66
2022/07/10 19:17:30;;;;;;;4.28;1.75;;;;;;;20.01;47.02;94832.13;4812600;29;20332;-65
2022/07/10 19:19:56;;;;;;;2.45;1.70;;;;;;;20.04;47.01;94845.06;4816696;29;20684;-65
2022/07/10 19:22:22;;;;;;;2.85;1.63;;;;;;;20.10;47.04;94846.03;4812060;29;20227;-65
2022/07/10 19:24:47;;;;;;;1.88;1.60;;;;;;;20.00;47.26;94842.00;4813105;29;20225;-65
2022/07/10 19:27:13;;;;;;;2.72;1.60;;;;;;;19.95;47.22;94847.16;4819660;29;20701;-66
2022/07/10 19:29:38;;;;;;;2.53;1.45;;;;;;;19.99;47.18;94847.53;4829864;29;20627;-66
2022/07/10 19:32:05;;;;;;;2.00;1.80;;;;;;;19.96;47.09;94845.31;4811235;29;20213;-66
2022/07/10 19:34:31;;;;;;;2.72;1.80;;;;;;;20.00;47.02;94851.88;4799498;29;20266;-66
2022/07/10 19:36:56;;;;;;;1.95;1.73;;;;;;;20.05;47.29;94854.72;4811596;29;20233;-66
2022/07/10 19:39:21;;;;;;;2.03;1.83;;;;;;;20.04;47.01;94859.22;4810298;29;20229;-66
2022/07/10 19:41:47;;;;;;;2.30;1.80;;;;;;;19.96;47.63;94855.97;4807431;29;20610;-65
2022/07/10 19:44:13;;;;;;;2.45;1.90;;;;;;;19.94;47.61;94858.03;4816353;29;21206;-65
2022/07/10 19:46:38;;;;;;;2.53;1.77;;;;;;;19.96;47.45;94864.78;4827882;29;20209;-65
2022/07/10 19:49:04;;;;;;;2.53;2.30;;;;;;;19.91;47.45;94869.94;4821593;29;20229;-65
2022/07/10 19:51:30;;;;;;;2.20;2.00;;;;;;;19.87;47.92;94874.09;4815420;29;20233;-64
2022/07/10 19:53:55;;;;;;;1.80;1.70;;;;;;;19.90;47.36;94868.31;4815693;29;21167;-65
2022/07/10 19:56:20;;;;;;;1.85;1.75;;;;;;;19.90;47.82;94875.53;4790537;29;20270;-65
2022/07/10 19:58:46;;;;;;;3.13;1.88;;;;;;;19.85;47.57;94867.34;4821406;29;20209;-65
2022/07/10 20:01:11;;;;;;;1.83;1.70;;;;;;;19.83;47.89;94873.72;4813333;29;20432;-64
2022/07/10 20:03:37;;;;;;;2.00;1.85;;;;;;;19.68;48.16;94875.81;4816261;29;20264;-64
2022/07/10 20:06:04;;;;;;;2.63;1.73;;;;;;;19.67;48.43;94873.34;4812730;29;20225;-65
2022/07/10 20:08:29;;;;;;;2.45;1.85;;;;;;;19.63;48.25;94872.13;4824134;29;20319;-64
2022/07/10 20:10:55;;;;;;;3.42;2.10;;;;;;;19.59;48.69;94867.22;4822015;29;20302;-64
2022/07/10 20:13:20;;;;;;;2.17;1.65;;;;;;;19.57;48.75;94868.47;4811943;29;20217;-65
2022/07/10 20:15:46;;;;;;;1.85;1.65;;;;;;;19.54;49.20;94869.69;4812756;29;20297;-64
2022/07/10 20:18:11;;;;;;;4.75;1.92;;;;;;;19.65;48.54;94872.75;4819017;29;20238;-64
2022/07/10 20:20:37;;;;;;;1.80;1.70;;;;;;;19.60;49.13;94873.38;4824473;29;20257;-64
2022/07/10 20:23:02;;;;;;;2.17;1.98;;;;;;;19.56;48.96;94872.13;4826667;29;20217;-64
2022/07/10 20:25:28;;;;;;;2.10;1.73;;;;;;;19.49;49.30;94877.50;4812926;29;20320;-64
2022/07/10 20:27:54;;;;;;;2.90;2.10;;;;;;;19.42;49.52;94873.22;4813055;29;20233;-64
2022/07/10 20:30:20;;;;;;;1.90;1.80;;;;;;;19.37;49.76;94874.66;4824851;29;20228;-64
2022/07/10 20:32:46;;;;;;;1.95;1.80;;;;;;;19.24;50.07;94874.69;4812280;29;20256;-64
2022/07/10 20:35:12;;;;;;;3.20;1.70;;;;;;;19.27;50.08;94884.13;4813398;29;20705;-64
2022/07/10 20:37:40;;;;;;;2.35;1.88;;;;;;;19.16;50.36;94883.75;4827138;29;20205;-64
2022/07/10 20:40:08;;;;;;;2.08;1.65;;;;;;;19.12;50.48;94879.03;4816814;29;20641;-64
2022/07/10 20:42:33;;;;;;;1.77;1.67;;;;;;;19.07;50.43;94878.84;4807803;29;20236;-64
2022/07/10 20:44:59;;;;;;;4.72;1.83;;;;;;;19.18;50.20;94881.69;4809754;29;20241;-64
2022/07/10 20:47:24;;;;;;;3.28;1.90;;;;;;;19.13;50.54;94886.00;4811393;29;20565;-64
2022/07/10 20:49:50;;;;;;;1.80;1.70;;;;;;;19.03;50.61;94886.44;4811954;29;20274;-65
2022/07/10 20:52:15;;;;;;;1.80;1.70;;;;;;;19.00;50.88;94884.16;4814578;29;20204;-64
2022/07/10 20:54:41;;;;;;;2.92;1.83;;;;;;;18.93;50.98;94888.69;4832285;29;20351;-64
2022/07/10 20:57:07;;;;;;;3.28;1.80;;;;;;;18.97;50.73;94891.75;4830030;29;20296;-65
2022/07/10 20:59:32;;;;;;;2.38;1.63;;;;;;;18.94;50.65;94888.47;4811640;29;20229;-65
2022/07/10 21:01:58;;;;;;;1.70;1.60;;;;;;;18.93;50.41;94889.50;4812595;29;20272;-64
2022/07/10 21:04:23;;;;;;;1.92;1.83;;;;;;;18.96;50.47;94890.94;4814205;29;20264;-64
2022/07/10 21:06:49;;;;;;;2.10;1.90;;;;;;;18.88;50.33;94891.97;4813134;29;20240;-64
2022/07/10 21:09:15;;;;;;;1.65;1.55;;;;;;;18.93;50.38;94894.84;4823548;29;20275;-66
2022/07/10 21:11:40;;;;;;;1.95;1.80;;;;;;;19.07;49.98;94895.63;4817814;29;20244;-63
2022/07/10 21:14:06;;;;;;;1.80;1.70;;;;;;;19.04;50.13;94897.91;4810706;29;20247;-63
2022/07/10 21:16:32;;;;;;;1.63;1.50;;;;;;;19.01;49.91;94891.16;4812228;29;20313;-63
2022/07/10 21:18:58;;;;;;;2.00;1.63;;;;;;;19.04;50.16;94896.06;4823444;29;20601;-64
2022/07/10 21:21:24;;;;;;;2.22;1.60;;;;;;;19.02;49.79;94892.78;4810779;29;20237;-64
2022/07/10 21:23:49;;;;;;;2.28;2.05;;;;;;;19.02;49.95;94886.63;4823608;29;20228;-64
2022/07/10 21:26:15;;;;;;;2.20;1.60;;;;;;;19.02;49.66;94892.78;4810360;29;20309;-64
2022/07/10 21:28:41;;;;;;;2.72;1.50;;;;;;;18.91;50.27;94890.75;4807346;29;20248;-65
2022/07/10 21:31:07;;;;;;;3.85;1.70;;;;;;;18.93;49.99;94894.84;4818550;29;20229;-64
2022/07/10 21:33:33;;;;;;;2.20;2.00;;;;;;;18.97;49.86;94889.91;4823053;29;20351;-63
2022/07/10 21:35:58;;;;;;;1.80;1.70;;;;;;;19.06;49.28;94890.50;4808355;29;20958;-64
2022/07/10 21:38:24;;;;;;;1.58;1.48;;;;;;;19.04;49.24;94884.59;4811341;29;20780;-64
2022/07/10 21:40:49;;;;;;;1.77;1.67;;;;;;;19.04;49.00;94888.06;4813003;29;20210;-64
2022/07/10 21:43:14;;;;;;;2.40;1.50;;;;;;;19.07;48.87;94884.16;4811371;29;20654;-65
2022/07/10 21:45:40;;;;;;;1.80;1.70;;;;;;;19.05;48.57;94888.88;4812324;29;20228;-64
2022/07/10 21:48:07;;;;;;;2.15;1.65;;;;;;;19.03;48.50;94882.94;4812200;29;20221;-64
2022/07/10 21:50:33;;;;;;;2.33;1.77;;;;;;;19.01;48.56;94885.00;4821383;29;20282;-64
2022/07/10 21:52:59;;;;;;;2.25;1.48;;;;;;;18.95;48.77;94890.13;4809120;29;20220;-64
2022/07/10 21:55:25;;;;;;;1.50;1.40;;;;;;;18.99;48.32;94892.38;4809663;29;20536;-65
2022/07/10 21:57:54;;;;;;;1.50;1.40;;;;;;;18.89;48.60;94885.59;4813264;29;20228;-64
2022/07/10 22:00:22;;;;;;;2.55;1.92;;;;;;;18.89;48.86;94904.25;4822991;29;20233;-64
2022/07/10 22:02:47;;;;;;;1.67;1.58;;;;;;;18.94;48.44;94893.81;4810678;29;20566;-65
2022/07/10 22:05:13;;;;;;;2.97;1.55;;;;;;;18.89;48.55;94890.13;4815633;29;20231;-65
2022/07/10 22:07:38;;;;;;;1.70;1.60;;;;;;;18.87;48.51;94898.34;4811312;29;20204;-65
2022/07/10 22:10:06;;;;;;;1.77;1.42;;;;;;;18.87;48.43;94890.34;4811850;29;20233;-65
2022/07/10 22:12:31;;;;;;;1.75;1.63;;;;;;;18.95;48.32;94887.47;4809218;29;20688;-65
2022/07/10 22:14:57;;;;;;;2.20;1.40;;;;;;;18.85;48.12;94887.06;4810613;29;20303;-65
2022/07/10 22:17:23;;;;;;;2.95;1.60;;;;;;;18.83;48.37;94894.44;4815574;29;20239;-65
2022/07/10 22:19:48;;;;;;;3.33;1.50;;;;;;;18.77;48.32;94897.13;4807312;29;20262;-66
2022/07/10 22:22:14;;;;;;;2.15;1.50;;;;;;;18.73;48.68;94894.00;4816076;29;20209;-65
2022/07/10 22:24:39;;;;;;;1.50;1.40;;;;;;;18.68;48.59;94889.31;4815821;29;20221;-65
2022/07/10 22:27:05;;;;;;;2.35;1.70;;;;;;;18.66;48.68;94885.19;4810255;29;20237;-66
2022/07/10 22:29:31;;;;;;;2.38;1.63;;;;;;;18.56;49.02;94887.44;4810650;29;20232;-66
2022/07/10 22:31:56;;;;;;;2.53;1.55;;;;;;;18.60;48.99;94889.47;4807388;29;20217;-65
2022/07/10 22:34:22;;;;;;;1.58;1.40;;;;;;;18.57;49.11;94889.06;4813069;29;20592;-65
2022/07/10 22:36:47;;;;;;;2.38;1.58;;;;;;;18.51;49.33;94886.19;4823334;29;20233;-64
2022/07/10 22:39:13;;;;;;;2.13;1.60;;;;;;;18.64;48.94;94884.59;4829770;29;20229;-65
2022/07/10 22:41:38;;;;;;;3.80;1.50;;;;;;;18.58;48.85;94875.56;4814015;29;20228;-65
2022/07/10 22:44:04;;;;;;;2.42;1.50;;;;;;;18.62;48.59;94891.94;4812036;29;20230;-65
2022/07/10 22:46:29;;;;;;;1.50;1.40;;;;;;;18.62;48.78;94879.44;4807021;29;20224;-65
2022/07/10 22:48:55;;;;;;;1.52;1.40;;;;;;;18.56;48.46;94888.25;4820924;29;20423;-64
2022/07/10 22:51:20;;;;;;;2.40;1.42;;;;;;;18.48;48.74;94883.13;4811325;29;20361;-65
2022/07/10 22:53:46;;;;;;;1.88;1.48;;;;;;;18.45;48.55;94878.22;4822963;29;20320;-65
2022/07/10 22:56:11;;;;;;;1.40;1.30;;;;;;;18.49;48.40;94888.25;4810747;29;20244;-66
2022/07/10 22:58:37;;;;;;;2.08;1.50;;;;;;;18.51;48.54;94886.19;4815940;29;20678;-65
2022/07/10 23:01:04;;;;;;;1.48;1.38;;;;;;;18.47;48.48;94886.81;4816724;29;20216;-65
2022/07/10 23:03:31;;;;;;;1.52;1.42;;;;;;;18.54;48.24;94889.50;4815763;29;20248;-65
2022/07/10 23:05:56;;;;;;;1.70;1.40;;;;;;;18.56;47.77;94892.78;4812308;29;20229;-65
2022/07/10 23:08:22;;;;;;;1.70;1.60;;;;;;;18.58;47.90;94896.88;4814697;29;20228;-66
2022/07/10 23:10:49;;;;;;;2.13;1.40;;;;;;;18.68;47.42;94896.44;4809340;29;20364;-66
2022/07/10 23:13:15;;;;;;;3.22;1.13;;;;;;;18.66;47.21;94894.00;4804374;29;20247;-66
2022/07/10 23:15:40;;;;;;;2.22;1.27;;;;;;;18.68;47.02;94886.63;4827456;29;20229;-65
2022/07/10 23:18:06;;;;;;;1.35;1.25;;;;;;;18.66;47.17;94901.19;4811834;29;20289;-65
2022/07/10 23:20:32;;;;;;;2.30;1.42;;;;;;;18.64;47.15;94895.22;4828024;29;20686;-65
2022/07/10 23:22:57;;;;;;;1.40;1.30;;;;;;;18.58;46.97;94893.38;4823392;29;20202;-65
2022/07/10 23:25:22;;;;;;;3.38;1.50;;;;;;;18.56;47.32;94895.44;4811443;29;20209;-66
2022/07/10 23:27:48;;;;;;;2.10;1.42;;;;;;;18.46;47.36;94898.50;4825718;29;20229;-66
2022/07/10 23:30:13;;;;;;;4.05;1.48;;;;;;;18.36;47.49;94898.88;4816222;29;20292;-66
2022/07/10 23:32:39;;;;;;;2.65;1.52;;;;;;;18.44;47.33;94903.19;4834833;29;20237;-66
2022/07/10 23:35:05;;;;;;;1.55;1.33;;;;;;;18.38;47.52;94902.16;4829350;29;20244;-66
2022/07/10 23:37:30;;;;;;;1.33;1.23;;;;;;;18.32;47.86;94900.31;4825577;29;20206;-66
2022/07/10 23:39:56;;;;;;;1.63;1.40;;;;;;;18.33;47.69;94904.59;4823954;29;20264;-66
2022/07/10 23:42:22;;;;;;;1.10;1.10;;;;;;;18.28;47.79;94902.56;4828050;29;20236;-66
2022/07/10 23:44:47;;;;;;;6.13;1.85;;;;;;;18.41;47.42;94893.75;4813341;29;20236;-66
2022/07/10 23:47:13;;;;;;;2.38;1.27;;;;;;;18.41;47.58;94896.44;4828580;29;20221;-66
2022/07/10 23:52:23;;;;;;;2.55;1.30;;;;;;;18.23;48.00;94907.69;4827522;29;20236;-66
2022/07/10 23:54:49;;;;;;;2.72;1.45;;;;;;;18.23;48.20;94901.50;4813730;29;20461;-66
2022/07/10 23:57:16;;;;;;;2.60;1.42;;;;;;;18.18;48.28;94902.13;4811028;29;20233;-66
2022/07/10 23:59:42;;;;;;;1.63;1.40;;;;;;;18.17;48.38;94902.31;4813432;29;20221;-66
